createdAt,value
2023-04-07T00:00:13.273Z,71.19
2023-04-07T00:02:43.833Z,71.23
2023-04-07T00:05:12.903Z,71.22
2023-04-07T00:07:52.239Z,71.22
2023-04-07T00:10:24.722Z,71.40
2023-04-07T00:12:53.089Z,71.45
2023-04-07T00:15:21.375Z,71.24
2023-04-07T00:17:49.811Z,71.11
2023-04-07T00:20:18.113Z,71.35
2023-04-07T00:22:46.322Z,71.47
2023-04-07T00:25:14.837Z,71.48
2023-04-07T00:27:43.069Z,71.57
2023-04-07T00:30:11.996Z,71.70
2023-04-07T00:32:40.467Z,71.69
2023-04-07T00:35:10.430Z,71.59
2023-04-07T00:37:38.634Z,71.55
2023-04-07T00:40:09.545Z,71.63
2023-04-07T00:42:39.310Z,71.74
2023-04-07T00:45:09.965Z,71.71
2023-04-07T00:47:38.312Z,71.79
2023-04-07T00:50:09.188Z,71.85
2023-04-07T00:52:37.706Z,71.99
2023-04-07T00:55:07.511Z,71.83
2023-04-07T00:57:35.820Z,71.95
2023-04-07T01:00:06.457Z,71.74
2023-04-07T01:02:41.498Z,71.93
2023-04-07T01:05:16.452Z,72.08
2023-04-07T01:07:57.992Z,71.89
2023-04-07T01:10:33.469Z,71.99
2023-04-07T01:13:12.199Z,71.97
2023-04-07T01:15:40.490Z,72.05
2023-04-07T01:18:17.569Z,72.05
2023-04-07T01:20:50.642Z,72.07
2023-04-07T01:23:31.102Z,71.97
2023-04-07T01:26:17.480Z,72.22
2023-04-07T01:29:07.576Z,72.17
2023-04-07T01:31:39.495Z,71.98
2023-04-07T01:34:11.846Z,72.22
2023-04-07T01:36:41.385Z,72.06
2023-04-07T01:39:11.386Z,72.01
2023-04-07T01:41:41.326Z,72.03
2023-04-07T01:44:11.203Z,71.99
2023-04-07T01:46:39.548Z,72.19
2023-04-07T01:49:08.227Z,72.06
2023-04-07T01:51:37.488Z,72.13
2023-04-07T01:54:06.831Z,72.15
2023-04-07T01:56:35.156Z,72.24
2023-04-07T01:59:07.211Z,72.25
2023-04-07T02:01:36.309Z,72.39
2023-04-07T02:04:12.440Z,72.40
2023-04-07T02:06:48.546Z,72.16
2023-04-07T02:09:20.422Z,72.19
2023-04-07T02:11:52.279Z,72.30
2023-04-07T02:14:23.815Z,72.42
2023-04-07T02:17:05.301Z,72.48
2023-04-07T02:19:35.340Z,72.54
2023-04-07T02:22:04.953Z,72.47
2023-04-07T02:24:33.339Z,72.53
2023-04-07T02:27:01.897Z,72.50
2023-04-07T02:29:30.171Z,72.67
2023-04-07T02:31:58.553Z,72.58
2023-04-07T02:34:26.933Z,72.68
2023-04-07T02:36:55.199Z,72.51
2023-04-07T02:39:23.813Z,72.60
2023-04-07T02:41:52.046Z,72.63
2023-04-07T02:44:20.379Z,72.61
2023-04-07T02:46:48.631Z,72.73
2023-04-07T02:49:17.230Z,72.77
2023-04-07T02:51:46.357Z,72.84
2023-04-07T02:54:14.533Z,72.75
2023-04-07T02:56:43.340Z,72.76
2023-04-07T02:59:11.588Z,72.98
2023-04-07T03:01:43.395Z,72.91
2023-04-07T03:04:11.956Z,72.90
2023-04-07T03:06:40.348Z,72.87
2023-04-07T03:09:12.844Z,72.82
2023-04-07T03:11:41.398Z,73.17
2023-04-07T03:14:09.753Z,73.05
2023-04-07T03:16:43.856Z,72.99
2023-04-07T03:19:14.573Z,73.02
2023-04-07T03:21:48.539Z,73.15
2023-04-07T03:24:17.813Z,73.12
2023-04-07T03:26:47.700Z,73.08
2023-04-07T03:29:26.160Z,73.08
2023-04-07T03:31:54.804Z,73.16
2023-04-07T03:34:25.214Z,73.07
2023-04-07T03:36:53.509Z,73.09
2023-04-07T03:39:22.721Z,73.33
2023-04-07T03:41:51.621Z,73.22
2023-04-07T03:44:20.301Z,73.20
2023-04-07T03:46:50.417Z,73.37
2023-04-07T03:49:18.845Z,73.39
2023-04-07T03:51:47.092Z,73.39
2023-04-07T03:54:16.844Z,73.30
2023-04-07T03:56:46.048Z,73.30
2023-04-07T03:59:15.080Z,73.16
2023-04-07T04:01:53.087Z,73.22
2023-04-07T04:04:21.451Z,73.25
2023-04-07T04:06:50.854Z,73.16
2023-04-07T04:09:23.979Z,73.19
2023-04-07T04:11:52.267Z,73.22
2023-04-07T04:14:20.755Z,73.32
2023-04-07T04:16:54.463Z,73.39
2023-04-07T04:19:34.059Z,73.34
2023-04-07T04:22:05.371Z,73.35
2023-04-07T04:24:36.523Z,73.23
2023-04-07T04:27:05.375Z,73.29
2023-04-07T04:29:33.992Z,73.42
2023-04-07T04:32:03.097Z,73.29
2023-04-07T04:34:32.047Z,73.48
2023-04-07T04:37:03.534Z,73.43
2023-04-07T04:39:31.989Z,73.39
2023-04-07T04:42:01.496Z,73.50
2023-04-07T04:44:34.507Z,73.53
2023-04-07T04:47:03.002Z,73.56
2023-04-07T04:49:32.140Z,73.36
2023-04-07T04:52:02.501Z,73.41
2023-04-07T04:54:32.529Z,73.38
2023-04-07T04:57:04.075Z,73.43
2023-04-07T04:59:32.657Z,73.45
2023-04-07T05:02:04.273Z,73.58
2023-04-07T05:04:34.109Z,73.61
2023-04-07T05:07:22.330Z,73.56
2023-04-07T05:09:50.806Z,73.66
2023-04-07T05:12:19.433Z,73.60
2023-04-07T05:14:50.760Z,73.72
2023-04-07T05:17:20.030Z,73.68
2023-04-07T05:19:49.644Z,73.74
2023-04-07T05:22:25.983Z,73.68
2023-04-07T05:25:02.532Z,73.73
2023-04-07T05:27:30.861Z,73.79
2023-04-07T05:30:03.412Z,73.82
2023-04-07T05:32:33.938Z,73.73
2023-04-07T05:35:07.481Z,73.72
2023-04-07T05:37:37.099Z,73.82
2023-04-07T05:40:08.586Z,73.85
2023-04-07T05:42:37.069Z,73.97
2023-04-07T05:45:07.093Z,74.06
2023-04-07T05:47:36.079Z,73.99
2023-04-07T05:50:05.409Z,73.93
2023-04-07T05:52:34.960Z,73.96
2023-04-07T05:55:10.695Z,73.91
2023-04-07T05:57:39.798Z,73.96
2023-04-07T06:00:10.894Z,73.92
2023-04-07T06:02:42.599Z,73.89
2023-04-07T06:05:15.275Z,73.83
2023-04-07T06:07:43.693Z,73.86
2023-04-07T06:10:12.245Z,73.69
2023-04-07T06:12:40.484Z,73.69
2023-04-07T06:15:10.159Z,73.51
2023-04-07T06:17:39.487Z,73.48
2023-04-07T06:20:11.093Z,73.57
2023-04-07T06:22:39.787Z,73.64
2023-04-07T06:25:10.673Z,73.59
2023-04-07T06:27:39.076Z,73.60
2023-04-07T06:30:10.941Z,73.70
2023-04-07T06:32:39.301Z,73.63
2023-04-07T06:35:08.858Z,73.87
2023-04-07T06:37:38.696Z,73.98
2023-04-07T06:40:09.352Z,73.93
2023-04-07T06:42:37.761Z,74.02
2023-04-07T06:45:12.133Z,73.95
2023-04-07T06:47:40.566Z,73.96
2023-04-07T06:50:10.448Z,73.89
2023-04-07T06:52:38.820Z,73.89
2023-04-07T06:55:09.492Z,73.85
2023-04-07T06:57:37.873Z,73.79
2023-04-07T07:00:08.656Z,73.75
2023-04-07T07:03:17.401Z,73.82
2023-04-07T07:05:50.475Z,73.66
2023-04-07T07:08:28.924Z,73.72
2023-04-07T07:11:00.483Z,73.71
2023-04-07T07:13:28.972Z,73.56
2023-04-07T07:15:57.299Z,73.39
2023-04-07T07:18:29.772Z,73.31
2023-04-07T07:20:59.398Z,73.43
2023-04-07T07:23:27.717Z,73.17
2023-04-07T07:25:55.995Z,73.43
2023-04-07T07:28:24.236Z,73.36
2023-04-07T07:30:52.538Z,73.38
2023-04-07T07:33:22.238Z,73.47
2023-04-07T07:35:51.111Z,73.50
2023-04-07T07:38:19.903Z,73.58
2023-04-07T07:40:48.208Z,73.45
2023-04-07T07:43:17.644Z,73.50
2023-04-07T07:45:46.068Z,73.53
2023-04-07T07:48:14.324Z,73.36
2023-04-07T07:50:44.078Z,73.07
2023-04-07T07:53:12.348Z,73.14
2023-04-07T07:55:40.807Z,73.05
2023-04-07T07:58:09.077Z,72.97
2023-04-07T08:00:37.465Z,72.79
2023-04-07T08:03:08.814Z,72.99
2023-04-07T08:05:37.210Z,72.87
2023-04-07T08:08:05.631Z,72.63
2023-04-07T08:10:33.934Z,72.58
2023-04-07T08:13:02.209Z,72.68
2023-04-07T08:15:30.574Z,72.73
2023-04-07T08:17:59.882Z,72.73
2023-04-07T08:20:28.361Z,72.77
2023-04-07T08:22:56.760Z,72.83
2023-04-07T08:25:25.234Z,73.11
2023-04-07T08:27:53.490Z,73.11
2023-04-07T08:30:24.164Z,73.30
2023-04-07T08:32:52.538Z,73.20
2023-04-07T08:35:22.094Z,73.12
2023-04-07T08:37:50.488Z,72.95
2023-04-07T08:40:18.838Z,72.89
2023-04-07T08:42:48.925Z,72.86
2023-04-07T08:45:18.596Z,72.93
2023-04-07T08:47:49.200Z,72.82
2023-04-07T08:54:04.489Z,72.60
2023-04-07T09:07:19.122Z,71.84
2023-04-07T09:09:50.624Z,71.48
2023-04-07T09:12:21.752Z,71.13
2023-04-07T09:14:53.938Z,71.30
2023-04-07T09:17:26.983Z,71.42
2023-04-07T09:19:59.525Z,71.37
2023-04-07T09:22:43.169Z,71.44
2023-04-07T09:25:16.833Z,71.45
2023-04-07T09:28:04.949Z,71.48
2023-04-07T09:30:36.503Z,71.71
2023-04-07T09:33:07.716Z,71.71
2023-04-07T09:35:57.809Z,71.49
2023-04-07T09:38:36.005Z,71.03
2023-04-07T09:41:11.620Z,71.06
2023-04-07T09:43:44.916Z,70.93
2023-04-07T09:46:17.798Z,70.97
2023-04-07T09:48:49.453Z,71.06
2023-04-07T09:51:20.527Z,71.04
2023-04-07T09:53:53.375Z,71.17
2023-04-07T09:56:25.134Z,71.05
2023-04-07T09:58:56.701Z,71.28
2023-04-07T10:01:27.893Z,71.41
2023-04-07T10:03:59.566Z,71.48
2023-04-07T10:06:30.971Z,71.48
2023-04-07T10:09:03.308Z,71.46
2023-04-07T10:11:34.478Z,71.56
2023-04-07T10:14:05.830Z,71.54
2023-04-07T10:16:37.297Z,71.60
2023-04-07T10:19:09.807Z,71.64
2023-04-07T10:21:43.564Z,71.80
2023-04-07T10:24:29.398Z,71.66
2023-04-07T10:27:04.543Z,71.49
2023-04-07T10:29:52.808Z,71.24
2023-04-07T10:32:24.060Z,71.17
2023-04-07T10:35:02.425Z,71.11
2023-04-07T10:37:34.558Z,71.05
2023-04-07T10:40:31.521Z,71.03
2023-04-07T10:43:02.719Z,71.04
2023-04-07T10:45:59.977Z,71.14
2023-04-07T10:48:33.513Z,71.20
2023-04-07T10:51:18.487Z,71.26
2023-04-07T10:54:23.195Z,71.17
2023-04-07T10:57:12.161Z,71.22
2023-04-07T11:00:09.360Z,71.25
2023-04-07T11:02:54.024Z,71.17
2023-04-07T11:05:27.009Z,70.84
2023-04-07T11:07:59.575Z,70.70
2023-04-07T11:10:30.890Z,70.86
2023-04-07T11:13:03.861Z,71.06
2023-04-07T11:15:37.882Z,71.13
2023-04-07T11:18:13.265Z,71.26
2023-04-07T11:21:00.954Z,71.28
2023-04-07T11:23:40.644Z,71.12
2023-04-07T11:26:15.969Z,71.01
2023-04-07T11:28:50.364Z,71.05
2023-04-07T11:31:28.282Z,70.93
2023-04-07T11:34:01.236Z,70.63
2023-04-07T11:36:34.157Z,70.28
2023-04-07T11:39:06.879Z,70.28
2023-04-07T11:41:49.992Z,70.07
2023-04-07T11:44:21.438Z,69.96
2023-04-07T11:47:02.244Z,69.87
2023-04-07T11:49:33.469Z,69.90
2023-04-07T11:52:07.017Z,69.73
2023-04-07T11:54:46.998Z,69.81
2023-04-07T11:57:24.883Z,69.87
2023-04-07T12:00:08.974Z,70.04
2023-04-07T12:02:40.270Z,70.20
2023-04-07T12:05:11.929Z,70.30
2023-04-07T12:07:53.798Z,70.54
2023-04-07T12:10:26.941Z,70.66
2023-04-07T12:12:59.443Z,70.65
2023-04-07T12:15:30.852Z,70.78
2023-04-07T12:18:03.022Z,70.65
2023-04-07T12:20:36.470Z,70.87
2023-04-07T12:23:08.583Z,71.23
2023-04-07T12:25:39.547Z,71.47
2023-04-07T12:28:10.448Z,71.75
2023-04-07T12:30:41.487Z,71.92
2023-04-07T12:33:12.500Z,71.87
2023-04-07T12:35:43.474Z,72.03
2023-04-07T12:38:14.593Z,72.32
2023-04-07T12:41:27.853Z,72.33
2023-04-07T12:44:21.135Z,72.49
2023-04-07T12:46:52.276Z,72.64
2023-04-07T12:49:23.290Z,72.44
2023-04-07T12:51:54.910Z,72.37
2023-04-07T12:54:26.051Z,72.22
2023-04-07T12:56:58.723Z,72.02
2023-04-07T12:59:30.570Z,72.00
2023-04-07T13:02:02.317Z,71.92
2023-04-07T13:04:33.664Z,71.86
2023-04-07T13:07:04.674Z,71.69
2023-04-07T13:09:35.711Z,71.75
2023-04-07T13:12:06.912Z,71.69
2023-04-07T13:14:57.106Z,71.63
2023-04-07T13:17:31.031Z,71.39
2023-04-07T13:20:02.076Z,71.17
2023-04-07T13:22:34.218Z,70.96
2023-04-07T13:25:07.928Z,70.59
2023-04-07T13:27:38.873Z,70.73
2023-04-07T13:30:11.777Z,70.60
2023-04-07T13:32:42.944Z,70.41
2023-04-07T13:35:13.881Z,70.28
2023-04-07T13:37:45.659Z,70.22
2023-04-07T13:40:16.779Z,70.31
2023-04-07T13:42:47.691Z,70.25
2023-04-07T13:45:18.743Z,70.16
2023-04-07T13:47:50.567Z,69.78
2023-04-07T13:50:21.694Z,69.68
2023-04-07T13:52:52.704Z,69.15
2023-04-07T13:55:23.760Z,68.90
2023-04-07T13:57:55.121Z,68.86
2023-04-07T14:00:26.430Z,68.74
2023-04-07T14:02:57.601Z,68.61
2023-04-07T14:05:28.827Z,68.40
2023-04-07T14:07:59.821Z,68.30
2023-04-07T14:10:31.585Z,68.13
2023-04-07T14:13:02.972Z,68.19
2023-04-07T14:15:34.155Z,68.10
2023-04-07T14:18:06.472Z,67.78
2023-04-07T14:20:38.163Z,67.80
2023-04-07T14:23:09.198Z,67.49
2023-04-07T14:25:40.180Z,67.30
2023-04-07T14:28:11.496Z,67.02
2023-04-07T14:30:42.542Z,66.88
2023-04-07T14:33:14.051Z,66.75
2023-04-07T14:35:45.135Z,66.84
2023-04-07T14:38:16.283Z,66.50
2023-04-07T14:40:47.509Z,66.21
2023-04-07T14:43:18.551Z,66.11
2023-04-07T14:45:50.218Z,65.97
2023-04-07T14:48:21.254Z,65.76
2023-04-07T14:51:05.979Z,65.65
2023-04-07T14:53:42.066Z,65.61
2023-04-07T14:56:13.100Z,65.63
2023-04-07T14:58:44.063Z,65.77
2023-04-07T15:01:18.637Z,65.73
2023-04-07T15:03:50.111Z,65.70
2023-04-07T15:06:22.122Z,65.16
2023-04-07T15:08:53.163Z,64.97
2023-04-07T15:11:24.193Z,64.75
2023-04-07T15:13:55.209Z,64.80
2023-04-07T15:16:26.308Z,64.72
2023-04-07T15:18:57.244Z,64.67
2023-04-07T15:21:28.546Z,64.80
2023-04-07T15:23:59.625Z,64.95
2023-04-07T15:26:30.605Z,64.66
2023-04-07T15:29:02.104Z,64.60
2023-04-07T15:31:33.300Z,64.67
2023-04-07T15:34:04.407Z,64.67
2023-04-07T15:36:35.392Z,64.51
2023-04-07T15:39:07.878Z,64.80
2023-04-07T15:41:39.105Z,64.92
2023-04-07T15:44:10.330Z,64.83
2023-04-07T15:46:41.312Z,64.85
2023-04-07T15:49:12.267Z,64.91
2023-04-07T15:51:44.336Z,64.86
2023-04-07T15:54:15.999Z,64.80
2023-04-07T15:56:46.944Z,64.77
2023-04-07T15:59:17.885Z,64.77
2023-04-07T16:01:49.445Z,64.59
2023-04-07T16:04:20.961Z,64.57
2023-04-07T16:06:51.979Z,64.64
2023-04-07T16:09:22.978Z,64.34
2023-04-07T16:11:55.034Z,64.38
2023-04-07T16:14:29.091Z,64.05
2023-04-07T16:17:00.296Z,63.89
2023-04-07T16:19:31.335Z,64.18
2023-04-07T16:22:02.422Z,64.11
2023-04-07T16:24:33.810Z,64.37
2023-04-07T16:27:04.852Z,64.25
2023-04-07T16:29:35.814Z,63.96
2023-04-07T16:32:07.253Z,63.93
2023-04-07T16:34:38.316Z,63.98
2023-04-07T16:37:09.319Z,63.65
2023-04-07T16:39:40.488Z,63.61
2023-04-07T16:42:11.847Z,63.56
2023-04-07T16:44:42.901Z,63.67
2023-04-07T16:47:13.875Z,63.52
2023-04-07T16:49:44.936Z,63.14
2023-04-07T16:52:16.528Z,62.83
2023-04-07T16:54:48.008Z,62.62
2023-04-07T16:57:19.163Z,62.55
2023-04-07T16:59:50.149Z,62.63
2023-04-07T17:02:21.337Z,62.51
2023-04-07T17:04:52.672Z,62.48
2023-04-07T17:07:24.100Z,62.46
2023-04-07T17:09:55.775Z,62.65
2023-04-07T17:12:27.941Z,62.38
2023-04-07T17:14:59.008Z,62.59
2023-04-07T17:17:30.020Z,62.59
2023-04-07T17:20:01.087Z,62.65
2023-04-07T17:22:32.034Z,62.45
2023-04-07T17:25:03.047Z,62.33
2023-04-07T17:27:33.943Z,62.55
2023-04-07T17:30:05.349Z,62.61
2023-04-07T17:32:36.810Z,62.63
2023-04-07T17:35:08.739Z,62.80
2023-04-07T17:37:40.266Z,62.68
2023-04-07T17:40:17.262Z,62.96
2023-04-07T17:42:48.731Z,63.09
2023-04-07T17:45:19.865Z,63.09
2023-04-07T17:47:51.731Z,63.12
2023-04-07T17:50:22.950Z,63.36
2023-04-07T17:52:54.188Z,63.34
2023-04-07T17:55:25.093Z,63.39
2023-04-07T17:58:00.934Z,63.34
2023-04-07T18:00:32.657Z,63.47
2023-04-07T18:03:04.153Z,63.48
2023-04-07T18:05:35.442Z,63.54
2023-04-07T18:08:06.976Z,63.50
2023-04-07T18:10:38.134Z,63.66
2023-04-07T18:13:09.296Z,63.66
2023-04-07T18:15:44.483Z,63.82
2023-04-07T18:18:13.829Z,63.87
2023-04-07T18:20:44.808Z,63.84
2023-04-07T18:23:15.828Z,64.02
2023-04-07T18:25:47.213Z,63.95
2023-04-07T18:28:18.422Z,63.94
2023-04-07T18:30:49.430Z,63.91
2023-04-07T18:33:20.508Z,63.86
2023-04-07T18:35:51.566Z,63.82
2023-04-07T18:38:22.703Z,63.76
2023-04-07T18:40:53.697Z,64.01
2023-04-07T18:43:25.003Z,63.93
2023-04-07T18:45:56.041Z,63.92
2023-04-07T18:48:27.205Z,63.97
2023-04-07T18:50:58.454Z,64.07
2023-04-07T18:53:29.496Z,63.95
2023-04-07T18:56:01.530Z,63.98
2023-04-07T18:58:32.649Z,64.12
2023-04-07T19:01:03.798Z,64.22
2023-04-07T19:03:35.416Z,64.17
2023-04-07T19:06:06.989Z,64.02
2023-04-07T19:08:38.259Z,64.20
2023-04-07T19:11:09.272Z,64.11
2023-04-07T19:13:40.516Z,64.16
2023-04-07T19:16:11.531Z,64.19
2023-04-07T19:18:44.554Z,64.14
2023-04-07T19:21:15.522Z,64.03
2023-04-07T19:23:47.881Z,64.24
2023-04-07T19:26:18.989Z,64.11
2023-04-07T19:28:50.348Z,64.24
2023-04-07T19:31:21.380Z,64.37
2023-04-07T19:33:52.498Z,64.54
2023-04-07T19:36:23.520Z,64.41
2023-04-07T19:38:54.506Z,64.58
2023-04-07T19:41:25.625Z,64.59
2023-04-07T19:43:56.542Z,64.58
2023-04-07T19:46:27.709Z,64.60
2023-04-07T19:48:58.637Z,64.68
2023-04-07T19:51:29.629Z,64.72
2023-04-07T19:54:00.586Z,64.79
2023-04-07T19:56:31.598Z,64.90
2023-04-07T19:59:02.643Z,64.86
2023-04-07T20:01:33.906Z,64.85
2023-04-07T20:04:05.754Z,64.79
2023-04-07T20:06:40.016Z,64.97
2023-04-07T20:09:11.149Z,64.86
2023-04-07T20:11:42.109Z,64.66
2023-04-07T20:14:13.072Z,64.67
2023-04-07T20:16:44.203Z,64.53
2023-04-07T20:19:15.256Z,64.43
2023-04-07T20:21:46.458Z,64.46
2023-04-07T20:24:18.910Z,64.41
2023-04-07T20:26:50.203Z,64.62
2023-04-07T20:29:22.340Z,64.51
2023-04-07T20:31:53.852Z,64.67
2023-04-07T20:34:24.858Z,64.63
2023-04-07T20:36:55.941Z,64.58
2023-04-07T20:39:26.970Z,64.62
2023-04-07T20:41:58.406Z,64.63
2023-04-07T20:44:29.427Z,64.59
2023-04-07T20:47:00.920Z,64.65
2023-04-07T20:49:31.813Z,64.70
2023-04-07T20:52:02.901Z,64.74
2023-04-07T20:54:34.085Z,64.59
2023-04-07T20:57:05.146Z,64.26
2023-04-07T20:59:36.244Z,64.08
2023-04-07T21:02:07.813Z,63.92
2023-04-07T21:04:38.998Z,63.98
2023-04-07T21:07:10.642Z,63.94
2023-04-07T21:09:41.727Z,64.00
2023-04-07T21:12:12.779Z,63.90
2023-04-07T21:14:43.901Z,63.89
2023-04-07T21:17:14.884Z,63.76
2023-04-07T21:19:45.915Z,63.65
2023-04-07T21:22:17.054Z,63.78
2023-04-07T21:24:48.080Z,63.79
2023-04-07T21:27:19.009Z,63.86
2023-04-07T21:29:50.017Z,63.84
2023-04-07T21:32:21.044Z,63.92
2023-04-07T21:34:54.935Z,64.08
2023-04-07T21:37:27.617Z,63.98
2023-04-07T21:39:58.750Z,64.02
2023-04-07T21:42:29.608Z,64.10
2023-04-07T21:45:00.960Z,64.15
2023-04-07T21:47:32.016Z,64.21
2023-04-07T21:50:03.127Z,64.36
2023-04-07T21:52:34.172Z,64.35
2023-04-07T21:55:05.377Z,64.42
2023-04-07T21:57:36.425Z,64.43
2023-04-07T22:00:09.164Z,64.41
2023-04-07T22:02:46.769Z,64.40
2023-04-07T22:05:18.235Z,64.08
2023-04-07T22:07:49.471Z,64.23
2023-04-07T22:10:20.796Z,64.15
2023-04-07T22:12:51.793Z,64.19
2023-04-07T22:15:23.066Z,64.21
2023-04-07T22:17:54.061Z,64.14
2023-04-07T22:20:25.950Z,64.04
2023-04-07T22:22:57.806Z,64.10
2023-04-07T22:25:29.092Z,64.24
2023-04-07T22:28:00.141Z,64.06
2023-04-07T22:30:31.321Z,64.25
2023-04-07T22:33:02.328Z,64.15
2023-04-07T22:35:33.423Z,64.10
2023-04-07T22:38:04.434Z,63.87
2023-04-07T22:40:35.455Z,64.14
2023-04-07T22:43:06.655Z,64.07
2023-04-07T22:45:37.647Z,64.03
2023-04-07T22:48:08.860Z,64.06
2023-04-07T22:50:40.106Z,64.10
2023-04-07T22:53:11.602Z,63.97
2023-04-07T22:55:43.035Z,64.22
2023-04-07T22:58:14.194Z,64.39
2023-04-07T23:00:45.318Z,64.31
2023-04-07T23:03:16.417Z,64.32
2023-04-07T23:05:47.601Z,64.19
2023-04-07T23:08:18.670Z,63.90
2023-04-07T23:10:49.706Z,63.77
2023-04-07T23:13:20.854Z,63.93
2023-04-07T23:15:51.891Z,63.92
2023-04-07T23:18:47.226Z,63.91
2023-04-07T23:21:18.473Z,63.98
2023-04-07T23:23:49.416Z,63.92
2023-04-07T23:26:20.441Z,63.84
2023-04-07T23:28:51.910Z,63.75
2023-04-07T23:31:23.242Z,63.78
2023-04-07T23:33:54.296Z,63.75
2023-04-07T23:36:25.416Z,63.98
2023-04-07T23:38:57.270Z,63.86
2023-04-07T23:41:28.356Z,63.90
2023-04-07T23:43:59.378Z,63.92
2023-04-07T23:46:30.430Z,63.73
2023-04-07T23:49:01.695Z,63.98
2023-04-07T23:51:32.664Z,63.97
2023-04-07T23:54:03.612Z,64.12
2023-04-07T23:56:34.937Z,63.90
2023-04-07T23:59:06.141Z,64.21
